sensor_id;sensor_type;location;lat;lon;timestamp;P1;durP1;ratioP1;P2;durP2;ratioP2
12768;SDS011;6448;48.916;8.990;2023-02-15T00:00:23;15.88;;;14.45;;
12768;SDS011;6448;48.916;8.990;2023-02-15T00:01:24;16.38;;;14.88;;
12768;SDS011;6448;48.916;8.990;2023-02-15T00:02:25;15.57;;;14.20;;
12768;SDS011;6448;48.916;8.990;2023-02-15T00:03:26;15.35;;;14.05;;
12768;SDS011;6448;48.916;8.990;2023-02-15T00:04:29;16.30;;;14.90;;
12768;SDS011;6448;48.916;8.990;2023-02-15T00:05:45;16.30;;;14.80;;
12768;SDS011;6448;48.916;8.990;2023-02-15T00:06:47;16.35;;;14.95;;
12768;SDS011;6448;48.916;8.990;2023-02-15T00:07:48;16.30;;;14.77;;
12768;SDS011;6448;48.916;8.990;2023-02-15T00:08:50;17.05;;;15.45;;
12768;SDS011;6448;48.916;8.990;2023-02-15T00:09:54;17.40;;;15.80;;
12768;SDS011;6448;48.916;8.990;2023-02-15T00:11:03;16.57;;;15.07;;
12768;SDS011;6448;48.916;8.990;2023-02-15T00:12:05;16.42;;;14.95;;
12768;SDS011;6448;48.916;8.990;2023-02-15T00:13:07;16.75;;;15.25;;
12768;SDS011;6448;48.916;8.990;2023-02-15T00:14:09;16.45;;;14.95;;
12768;SDS011;6448;48.916;8.990;2023-02-15T00:15:12;16.83;;;15.32;;
12768;SDS011;6448;48.916;8.990;2023-02-15T00:16:14;16.30;;;14.90;;
12768;SDS011;6448;48.916;8.990;2023-02-15T00:17:14;15.82;;;14.43;;
12768;SDS011;6448;48.916;8.990;2023-02-15T00:18:16;16.30;;;14.80;;
12768;SDS011;6448;48.916;8.990;2023-02-15T00:19:18;15.48;;;14.07;;
12768;SDS011;6448;48.916;8.990;2023-02-15T00:20:22;16.42;;;14.95;;
12768;SDS011;6448;48.916;8.990;2023-02-15T00:21:23;16.55;;;15.10;;
12768;SDS011;6448;48.916;8.990;2023-02-15T00:22:25;15.63;;;14.23;;
12768;SDS011;6448;48.916;8.990;2023-02-15T00:23:27;16.02;;;14.63;;
12768;SDS011;6448;48.916;8.990;2023-02-15T00:24:27;15.77;;;14.37;;
12768;SDS011;6448;48.916;8.990;2023-02-15T00:25:29;15.52;;;14.18;;
12768;SDS011;6448;48.916;8.990;2023-02-15T00:26:30;15.30;;;14.00;;
12768;SDS011;6448;48.916;8.990;2023-02-15T00:27:32;15.32;;;14.02;;
12768;SDS011;6448;48.916;8.990;2023-02-15T00:28:36;15.77;;;14.38;;
12768;SDS011;6448;48.916;8.990;2023-02-15T00:29:38;15.25;;;13.95;;
12768;SDS011;6448;48.916;8.990;2023-02-15T00:30:39;15.37;;;14.07;;
12768;SDS011;6448;48.916;8.990;2023-02-15T00:31:41;15.40;;;14.00;;
12768;SDS011;6448;48.916;8.990;2023-02-15T00:32:42;15.30;;;14.00;;
12768;SDS011;6448;48.916;8.990;2023-02-15T00:33:45;15.70;;;14.30;;
12768;SDS011;6448;48.916;8.990;2023-02-15T00:34:47;14.60;;;13.40;;
12768;SDS011;6448;48.916;8.990;2023-02-15T00:35:55;14.55;;;13.30;;
12768;SDS011;6448;48.916;8.990;2023-02-15T00:36:56;15.52;;;14.18;;
12768;SDS011;6448;48.916;8.990;2023-02-15T00:37:57;14.82;;;13.52;;
12768;SDS011;6448;48.916;8.990;2023-02-15T00:38:58;14.98;;;13.68;;
12768;SDS011;6448;48.916;8.990;2023-02-15T00:40:00;14.85;;;13.55;;
12768;SDS011;6448;48.916;8.990;2023-02-15T00:41:02;15.20;;;13.80;;
12768;SDS011;6448;48.916;8.990;2023-02-15T00:42:05;15.63;;;13.65;;
12768;SDS011;6448;48.916;8.990;2023-02-15T00:43:06;13.88;;;12.68;;
12768;SDS011;6448;48.916;8.990;2023-02-15T00:44:07;14.40;;;13.20;;
12768;SDS011;6448;48.916;8.990;2023-02-15T00:45:08;14.15;;;12.95;;
12768;SDS011;6448;48.916;8.990;2023-02-15T00:46:12;14.95;;;13.68;;
12768;SDS011;6448;48.916;8.990;2023-02-15T00:47:13;14.63;;;12.70;;
12768;SDS011;6448;48.916;8.990;2023-02-15T00:48:15;13.55;;;12.45;;
12768;SDS011;6448;48.916;8.990;2023-02-15T00:49:16;14.32;;;13.13;;
12768;SDS011;6448;48.916;8.990;2023-02-15T00:50:17;13.90;;;12.70;;
12768;SDS011;6448;48.916;8.990;2023-02-15T00:51:21;13.38;;;12.18;;
12768;SDS011;6448;48.916;8.990;2023-02-15T00:52:23;13.75;;;12.48;;
12768;SDS011;6448;48.916;8.990;2023-02-15T00:53:24;13.45;;;12.30;;
12768;SDS011;6448;48.916;8.990;2023-02-15T00:54:27;13.23;;;12.02;;
12768;SDS011;6448;48.916;8.990;2023-02-15T00:55:28;13.30;;;11.93;;
12768;SDS011;6448;48.916;8.990;2023-02-15T00:56:30;13.90;;;12.52;;
12768;SDS011;6448;48.916;8.990;2023-02-15T00:57:31;14.63;;;12.52;;
12768;SDS011;6448;48.916;8.990;2023-02-15T00:58:33;13.25;;;12.15;;
12768;SDS011;6448;48.916;8.990;2023-02-15T00:59:34;13.70;;;12.30;;
12768;SDS011;6448;48.916;8.990;2023-02-15T01:00:36;12.65;;;11.65;;
12768;SDS011;6448;48.916;8.990;2023-02-15T01:01:37;12.70;;;11.48;;
12768;SDS011;6448;48.916;8.990;2023-02-15T01:02:39;12.45;;;11.45;;
12768;SDS011;6448;48.916;8.990;2023-02-15T01:03:40;12.20;;;11.20;;
12768;SDS011;6448;48.916;8.990;2023-02-15T01:04:43;13.23;;;12.13;;
12768;SDS011;6448;48.916;8.990;2023-02-15T01:05:44;13.23;;;12.13;;
12768;SDS011;6448;48.916;8.990;2023-02-15T01:06:48;13.20;;;12.13;;
12768;SDS011;6448;48.916;8.990;2023-02-15T01:07:49;12.70;;;11.65;;
12768;SDS011;6448;48.916;8.990;2023-02-15T01:08:51;13.27;;;12.07;;
12768;SDS011;6448;48.916;8.990;2023-02-15T01:09:51;12.43;;;11.43;;
12768;SDS011;6448;48.916;8.990;2023-02-15T01:10:53;12.68;;;11.63;;
12768;SDS011;6448;48.916;8.990;2023-02-15T01:11:54;12.43;;;11.32;;
12768;SDS011;6448;48.916;8.990;2023-02-15T01:12:56;12.25;;;11.25;;
12768;SDS011;6448;48.916;8.990;2023-02-15T01:13:57;11.95;;;11.00;;
12768;SDS011;6448;48.916;8.990;2023-02-15T01:14:59;12.00;;;11.00;;
12768;SDS011;6448;48.916;8.990;2023-02-15T01:16:00;12.15;;;11.15;;
12768;SDS011;6448;48.916;8.990;2023-02-15T01:17:02;11.75;;;10.85;;
12768;SDS011;6448;48.916;8.990;2023-02-15T01:18:03;11.45;;;10.55;;
12768;SDS011;6448;48.916;8.990;2023-02-15T01:19:05;11.80;;;10.90;;
12768;SDS011;6448;48.916;8.990;2023-02-15T01:20:07;11.82;;;10.82;;
12768;SDS011;6448;48.916;8.990;2023-02-15T01:21:09;11.63;;;10.73;;
12768;SDS011;6448;48.916;8.990;2023-02-15T01:22:15;11.13;;;10.23;;
12768;SDS011;6448;48.916;8.990;2023-02-15T01:23:15;11.23;;;10.32;;
12768;SDS011;6448;48.916;8.990;2023-02-15T01:24:20;11.68;;;10.68;;
12768;SDS011;6448;48.916;8.990;2023-02-15T01:25:21;11.75;;;10.85;;
12768;SDS011;6448;48.916;8.990;2023-02-15T01:26:24;12.18;;;11.18;;
12768;SDS011;6448;48.916;8.990;2023-02-15T01:27:26;11.77;;;10.80;;
12768;SDS011;6448;48.916;8.990;2023-02-15T01:28:26;11.60;;;10.60;;
12768;SDS011;6448;48.916;8.990;2023-02-15T01:29:29;12.00;;;11.00;;
12768;SDS011;6448;48.916;8.990;2023-02-15T01:30:29;11.68;;;10.68;;
12768;SDS011;6448;48.916;8.990;2023-02-15T01:31:31;11.18;;;10.27;;
12768;SDS011;6448;48.916;8.990;2023-02-15T01:32:32;11.25;;;10.35;;
12768;SDS011;6448;48.916;8.990;2023-02-15T01:33:34;10.95;;;10.13;;
12768;SDS011;6448;48.916;8.990;2023-02-15T01:34:36;11.10;;;10.20;;
12768;SDS011;6448;48.916;8.990;2023-02-15T01:35:38;10.95;;;10.05;;
12768;SDS011;6448;48.916;8.990;2023-02-15T01:36:38;11.45;;;10.55;;
12768;SDS011;6448;48.916;8.990;2023-02-15T01:37:42;11.10;;;10.20;;
12768;SDS011;6448;48.916;8.990;2023-02-15T01:38:43;10.63;;;9.82;;
12768;SDS011;6448;48.916;8.990;2023-02-15T01:39:45;10.48;;;9.68;;
12768;SDS011;6448;48.916;8.990;2023-02-15T01:40:46;11.63;;;10.63;;
12768;SDS011;6448;48.916;8.990;2023-02-15T01:41:51;11.18;;;10.27;;
12768;SDS011;6448;48.916;8.990;2023-02-15T01:42:52;11.00;;;10.10;;
12768;SDS011;6448;48.916;8.990;2023-02-15T01:43:55;11.55;;;10.65;;
12768;SDS011;6448;48.916;8.990;2023-02-15T01:44:59;11.07;;;10.18;;
12768;SDS011;6448;48.916;8.990;2023-02-15T01:46:02;11.20;;;10.30;;
12768;SDS011;6448;48.916;8.990;2023-02-15T01:47:03;11.55;;;10.65;;
12768;SDS011;6448;48.916;8.990;2023-02-15T01:48:05;10.90;;;10.00;;
12768;SDS011;6448;48.916;8.990;2023-02-15T01:49:17;11.50;;;10.60;;
12768;SDS011;6448;48.916;8.990;2023-02-15T01:50:23;11.52;;;10.63;;
12768;SDS011;6448;48.916;8.990;2023-02-15T01:51:27;11.50;;;10.60;;
12768;SDS011;6448;48.916;8.990;2023-02-15T01:52:32;11.43;;;10.25;;
12768;SDS011;6448;48.916;8.990;2023-02-15T01:53:38;10.70;;;9.80;;
12768;SDS011;6448;48.916;8.990;2023-02-15T01:54:44;10.10;;;9.30;;
12768;SDS011;6448;48.916;8.990;2023-02-15T01:55:48;11.88;;;9.80;;
12768;SDS011;6448;48.916;8.990;2023-02-15T01:56:54;10.65;;;9.65;;
12768;SDS011;6448;48.916;8.990;2023-02-15T01:57:59;10.07;;;9.27;;
12768;SDS011;6448;48.916;8.990;2023-02-15T01:59:04;10.57;;;9.68;;
12768;SDS011;6448;48.916;8.990;2023-02-15T02:00:09;10.00;;;9.10;;
12768;SDS011;6448;48.916;8.990;2023-02-15T02:01:14;10.05;;;9.25;;
12768;SDS011;6448;48.916;8.990;2023-02-15T02:02:16;10.32;;;9.48;;
12768;SDS011;6448;48.916;8.990;2023-02-15T02:03:20;10.50;;;9.50;;
12768;SDS011;6448;48.916;8.990;2023-02-15T02:04:29;10.20;;;9.40;;
12768;SDS011;6448;48.916;8.990;2023-02-15T02:05:36;9.73;;;9.02;;
12768;SDS011;6448;48.916;8.990;2023-02-15T02:06:39;9.52;;;8.82;;
12768;SDS011;6448;48.916;8.990;2023-02-15T02:07:42;10.48;;;9.57;;
12768;SDS011;6448;48.916;8.990;2023-02-15T02:08:47;10.23;;;9.43;;
12768;SDS011;6448;48.916;8.990;2023-02-15T02:09:49;9.98;;;9.15;;
12768;SDS011;6448;48.916;8.990;2023-02-15T02:10:50;9.50;;;8.80;;
12768;SDS011;6448;48.916;8.990;2023-02-15T02:11:52;10.57;;;9.75;;
12768;SDS011;6448;48.916;8.990;2023-02-15T02:12:54;10.10;;;9.20;;
12768;SDS011;6448;48.916;8.990;2023-02-15T02:13:58;9.57;;;8.77;;
12768;SDS011;6448;48.916;8.990;2023-02-15T02:14:59;9.95;;;9.15;;
12768;SDS011;6448;48.916;8.990;2023-02-15T02:16:04;8.43;;;7.80;;
12768;SDS011;6448;48.916;8.990;2023-02-15T02:17:12;9.50;;;8.63;;
12768;SDS011;6448;48.916;8.990;2023-02-15T02:18:21;8.45;;;7.75;;
12768;SDS011;6448;48.916;8.990;2023-02-15T02:19:40;7.80;;;7.20;;
12768;SDS011;6448;48.916;8.990;2023-02-15T02:21:10;8.63;;;7.75;;
12768;SDS011;6448;48.916;8.990;2023-02-15T02:22:39;9.30;;;7.82;;
12768;SDS011;6448;48.916;8.990;2023-02-15T02:24:13;8.90;;;8.20;;
12768;SDS011;6448;48.916;8.990;2023-02-15T02:25:58;8.80;;;8.10;;
12768;SDS011;6448;48.916;8.990;2023-02-15T02:27:29;8.63;;;7.93;;
12768;SDS011;6448;48.916;8.990;2023-02-15T02:28:45;8.88;;;8.18;;
12768;SDS011;6448;48.916;8.990;2023-02-15T02:31:49;8.40;;;7.80;;
12768;SDS011;6448;48.916;8.990;2023-02-15T02:34:33;8.73;;;8.02;;
12768;SDS011;6448;48.916;8.990;2023-02-15T02:35:41;8.75;;;8.05;;
12768;SDS011;6448;48.916;8.990;2023-02-15T02:36:52;8.98;;;8.27;;
12768;SDS011;6448;48.916;8.990;2023-02-15T02:38:00;9.15;;;8.45;;
12768;SDS011;6448;48.916;8.990;2023-02-15T02:39:12;8.75;;;8.05;;
12768;SDS011;6448;48.916;8.990;2023-02-15T02:40:24;8.98;;;8.27;;
12768;SDS011;6448;48.916;8.990;2023-02-15T02:41:32;8.85;;;8.15;;
12768;SDS011;6448;48.916;8.990;2023-02-15T02:42:39;9.25;;;8.45;;
12768;SDS011;6448;48.916;8.990;2023-02-15T02:43:44;8.10;;;7.50;;
12768;SDS011;6448;48.916;8.990;2023-02-15T02:44:52;8.73;;;8.02;;
12768;SDS011;6448;48.916;8.990;2023-02-15T02:46:00;8.70;;;8.00;;
12768;SDS011;6448;48.916;8.990;2023-02-15T02:47:09;9.10;;;8.40;;
12768;SDS011;6448;48.916;8.990;2023-02-15T02:48:15;8.77;;;8.13;;
12768;SDS011;6448;48.916;8.990;2023-02-15T02:49:31;8.90;;;8.20;;
12768;SDS011;6448;48.916;8.990;2023-02-15T02:50:34;8.73;;;8.02;;
12768;SDS011;6448;48.916;8.990;2023-02-15T02:51:35;8.97;;;8.17;;
12768;SDS011;6448;48.916;8.990;2023-02-15T02:52:38;8.60;;;7.90;;
12768;SDS011;6448;48.916;8.990;2023-02-15T02:53:41;8.73;;;8.02;;
12768;SDS011;6448;48.916;8.990;2023-02-15T02:54:42;8.10;;;7.50;;
12768;SDS011;6448;48.916;8.990;2023-02-15T02:55:44;8.57;;;7.85;;
12768;SDS011;6448;48.916;8.990;2023-02-15T02:56:50;8.30;;;7.70;;
12768;SDS011;6448;48.916;8.990;2023-02-15T02:57:53;8.35;;;7.75;;
12768;SDS011;6448;48.916;8.990;2023-02-15T02:58:59;8.73;;;8.02;;
12768;SDS011;6448;48.916;8.990;2023-02-15T03:00:03;8.55;;;7.85;;
12768;SDS011;6448;48.916;8.990;2023-02-15T03:01:09;8.20;;;7.50;;
12768;SDS011;6448;48.916;8.990;2023-02-15T03:02:15;8.68;;;7.88;;
12768;SDS011;6448;48.916;8.990;2023-02-15T03:03:24;8.13;;;7.53;;
12768;SDS011;6448;48.916;8.990;2023-02-15T03:04:31;7.90;;;7.30;;
12768;SDS011;6448;48.916;8.990;2023-02-15T03:05:37;8.32;;;7.63;;
12768;SDS011;6448;48.916;8.990;2023-02-15T03:06:42;8.88;;;8.07;;
12768;SDS011;6448;48.916;8.990;2023-02-15T03:07:49;8.50;;;7.80;;
12768;SDS011;6448;48.916;8.990;2023-02-15T03:08:53;8.27;;;7.57;;
12768;SDS011;6448;48.916;8.990;2023-02-15T03:10:01;8.30;;;7.63;;
12768;SDS011;6448;48.916;8.990;2023-02-15T03:11:04;8.50;;;7.80;;
12768;SDS011;6448;48.916;8.990;2023-02-15T03:12:07;8.05;;;7.43;;
12768;SDS011;6448;48.916;8.990;2023-02-15T03:13:13;7.75;;;7.15;;
12768;SDS011;6448;48.916;8.990;2023-02-15T03:14:16;8.20;;;7.60;;
12768;SDS011;6448;48.916;8.990;2023-02-15T03:15:20;8.35;;;7.65;;
12768;SDS011;6448;48.916;8.990;2023-02-15T03:16:24;8.18;;;7.57;;
12768;SDS011;6448;48.916;8.990;2023-02-15T03:17:26;7.90;;;7.30;;
12768;SDS011;6448;48.916;8.990;2023-02-15T03:18:30;7.97;;;7.28;;
12768;SDS011;6448;48.916;8.990;2023-02-15T03:19:39;7.72;;;7.07;;
12768;SDS011;6448;48.916;8.990;2023-02-15T03:20:44;8.02;;;7.43;;
12768;SDS011;6448;48.916;8.990;2023-02-15T03:21:47;7.80;;;7.20;;
12768;SDS011;6448;48.916;8.990;2023-02-15T03:22:58;7.67;;;7.07;;
12768;SDS011;6448;48.916;8.990;2023-02-15T03:24:05;7.95;;;7.32;;
12768;SDS011;6448;48.916;8.990;2023-02-15T03:25:10;7.97;;;7.38;;
12768;SDS011;6448;48.916;8.990;2023-02-15T03:26:17;8.00;;;7.40;;
12768;SDS011;6448;48.916;8.990;2023-02-15T03:27:21;8.20;;;7.60;;
12768;SDS011;6448;48.916;8.990;2023-02-15T03:28:27;8.38;;;7.53;;
12768;SDS011;6448;48.916;8.990;2023-02-15T03:29:33;7.97;;;7.38;;
12768;SDS011;6448;48.916;8.990;2023-02-15T03:30:36;7.32;;;6.72;;
12768;SDS011;6448;48.916;8.990;2023-02-15T03:31:40;8.18;;;7.38;;
12768;SDS011;6448;48.916;8.990;2023-02-15T03:32:44;8.15;;;7.50;;
12768;SDS011;6448;48.916;8.990;2023-02-15T03:33:49;7.63;;;7.03;;
12768;SDS011;6448;48.916;8.990;2023-02-15T03:34:56;8.07;;;7.47;;
12768;SDS011;6448;48.916;8.990;2023-02-15T03:35:59;7.40;;;6.90;;
12768;SDS011;6448;48.916;8.990;2023-02-15T03:37:05;8.30;;;7.60;;
12768;SDS011;6448;48.916;8.990;2023-02-15T03:38:16;7.53;;;6.95;;
12768;SDS011;6448;48.916;8.990;2023-02-15T03:39:20;7.93;;;7.33;;
12768;SDS011;6448;48.916;8.990;2023-02-15T03:40:31;8.10;;;7.50;;
12768;SDS011;6448;48.916;8.990;2023-02-15T03:41:55;7.50;;;6.93;;
12768;SDS011;6448;48.916;8.990;2023-02-15T03:43:02;7.43;;;6.93;;
12768;SDS011;6448;48.916;8.990;2023-02-15T03:44:11;7.43;;;6.82;;
12768;SDS011;6448;48.916;8.990;2023-02-15T03:45:17;7.70;;;7.10;;
12768;SDS011;6448;48.916;8.990;2023-02-15T03:46:27;7.88;;;7.28;;
12768;SDS011;6448;48.916;8.990;2023-02-15T03:47:33;7.35;;;6.85;;
12768;SDS011;6448;48.916;8.990;2023-02-15T03:48:38;7.28;;;6.78;;
12768;SDS011;6448;48.916;8.990;2023-02-15T03:49:41;7.15;;;6.65;;
12768;SDS011;6448;48.916;8.990;2023-02-15T03:50:49;7.53;;;6.93;;
12768;SDS011;6448;48.916;8.990;2023-02-15T03:52:10;7.57;;;6.97;;
12768;SDS011;6448;48.916;8.990;2023-02-15T03:53:14;7.90;;;7.30;;
12768;SDS011;6448;48.916;8.990;2023-02-15T03:54:18;7.30;;;6.80;;
12768;SDS011;6448;48.916;8.990;2023-02-15T03:55:41;7.28;;;6.70;;
12768;SDS011;6448;48.916;8.990;2023-02-15T03:56:48;7.32;;;6.72;;
12768;SDS011;6448;48.916;8.990;2023-02-15T03:58:09;7.50;;;6.90;;
12768;SDS011;6448;48.916;8.990;2023-02-15T03:59:28;7.88;;;7.22;;
12768;SDS011;6448;48.916;8.990;2023-02-15T04:00:49;7.43;;;6.82;;
12768;SDS011;6448;48.916;8.990;2023-02-15T04:02:14;7.80;;;7.20;;
12768;SDS011;6448;48.916;8.990;2023-02-15T04:03:23;7.50;;;6.95;;
12768;SDS011;6448;48.916;8.990;2023-02-15T04:04:32;7.45;;;6.85;;
12768;SDS011;6448;48.916;8.990;2023-02-15T04:05:35;7.63;;;7.03;;
12768;SDS011;6448;48.916;8.990;2023-02-15T04:06:37;7.88;;;7.28;;
12768;SDS011;6448;48.916;8.990;2023-02-15T04:07:39;7.68;;;7.07;;
12768;SDS011;6448;48.916;8.990;2023-02-15T04:08:40;7.78;;;7.18;;
12768;SDS011;6448;48.916;8.990;2023-02-15T04:10:00;7.70;;;7.10;;
12768;SDS011;6448;48.916;8.990;2023-02-15T04:11:19;7.63;;;7.03;;
12768;SDS011;6448;48.916;8.990;2023-02-15T04:12:21;8.30;;;7.60;;
12768;SDS011;6448;48.916;8.990;2023-02-15T04:13:22;7.60;;;7.00;;
12768;SDS011;6448;48.916;8.990;2023-02-15T04:14:30;7.88;;;7.28;;
12768;SDS011;6448;48.916;8.990;2023-02-15T04:15:49;7.15;;;6.65;;
12768;SDS011;6448;48.916;8.990;2023-02-15T04:17:04;7.57;;;6.97;;
12768;SDS011;6448;48.916;8.990;2023-02-15T04:18:05;7.90;;;7.30;;
12768;SDS011;6448;48.916;8.990;2023-02-15T04:19:06;8.20;;;7.38;;
12768;SDS011;6448;48.916;8.990;2023-02-15T04:20:26;7.50;;;6.90;;
12768;SDS011;6448;48.916;8.990;2023-02-15T04:21:46;7.50;;;6.90;;
12768;SDS011;6448;48.916;8.990;2023-02-15T04:23:05;7.72;;;7.13;;
12768;SDS011;6448;48.916;8.990;2023-02-15T04:24:25;7.73;;;7.13;;
12768;SDS011;6448;48.916;8.990;2023-02-15T04:25:44;7.68;;;7.07;;
12768;SDS011;6448;48.916;8.990;2023-02-15T04:26:46;7.57;;;6.97;;
12768;SDS011;6448;48.916;8.990;2023-02-15T04:27:48;7.60;;;7.00;;
12768;SDS011;6448;48.916;8.990;2023-02-15T04:28:51;7.63;;;7.03;;
12768;SDS011;6448;48.916;8.990;2023-02-15T04:29:52;7.60;;;7.00;;
12768;SDS011;6448;48.916;8.990;2023-02-15T04:30:53;7.78;;;7.18;;
12768;SDS011;6448;48.916;8.990;2023-02-15T04:31:55;7.50;;;6.90;;
12768;SDS011;6448;48.916;8.990;2023-02-15T04:32:58;7.55;;;6.95;;
12768;SDS011;6448;48.916;8.990;2023-02-15T04:33:59;7.53;;;6.95;;
12768;SDS011;6448;48.916;8.990;2023-02-15T04:35:00;7.40;;;6.80;;
12768;SDS011;6448;48.916;8.990;2023-02-15T04:36:01;7.28;;;6.78;;
12768;SDS011;6448;48.916;8.990;2023-02-15T04:37:05;7.65;;;7.00;;
12768;SDS011;6448;48.916;8.990;2023-02-15T04:38:06;7.90;;;7.30;;
12768;SDS011;6448;48.916;8.990;2023-02-15T04:39:08;7.57;;;6.97;;
12768;SDS011;6448;48.916;8.990;2023-02-15T04:40:10;8.20;;;7.53;;
12768;SDS011;6448;48.916;8.990;2023-02-15T04:41:14;8.07;;;7.45;;
12768;SDS011;6448;48.916;8.990;2023-02-15T04:42:15;7.93;;;7.33;;
12768;SDS011;6448;48.916;8.990;2023-02-15T04:43:17;7.40;;;6.85;;
12768;SDS011;6448;48.916;8.990;2023-02-15T04:44:18;7.30;;;6.80;;
12768;SDS011;6448;48.916;8.990;2023-02-15T04:45:19;7.43;;;6.87;;
12768;SDS011;6448;48.916;8.990;2023-02-15T04:46:20;7.80;;;7.20;;
12768;SDS011;6448;48.916;8.990;2023-02-15T04:47:22;7.53;;;6.93;;
12768;SDS011;6448;48.916;8.990;2023-02-15T04:48:23;7.70;;;7.10;;
12768;SDS011;6448;48.916;8.990;2023-02-15T04:49:25;7.75;;;7.05;;
12768;SDS011;6448;48.916;8.990;2023-02-15T04:50:26;8.02;;;7.38;;
12768;SDS011;6448;48.916;8.990;2023-02-15T04:51:27;8.05;;;7.35;;
12768;SDS011;6448;48.916;8.990;2023-02-15T04:52:29;7.93;;;7.30;;
12768;SDS011;6448;48.916;8.990;2023-02-15T04:53:31;8.30;;;7.70;;
12768;SDS011;6448;48.916;8.990;2023-02-15T04:54:32;7.65;;;7.05;;
12768;SDS011;6448;48.916;8.990;2023-02-15T04:55:34;7.90;;;7.30;;
12768;SDS011;6448;48.916;8.990;2023-02-15T04:56:34;8.07;;;7.47;;
12768;SDS011;6448;48.916;8.990;2023-02-15T04:57:37;7.93;;;7.32;;
12768;SDS011;6448;48.916;8.990;2023-02-15T04:58:38;7.75;;;7.15;;
12768;SDS011;6448;48.916;8.990;2023-02-15T04:59:41;8.05;;;7.45;;
12768;SDS011;6448;48.916;8.990;2023-02-15T05:00:41;7.90;;;7.30;;
12768;SDS011;6448;48.916;8.990;2023-02-15T05:01:43;7.80;;;7.20;;
12768;SDS011;6448;48.916;8.990;2023-02-15T05:02:44;8.32;;;7.68;;
12768;SDS011;6448;48.916;8.990;2023-02-15T05:03:46;7.65;;;7.05;;
12768;SDS011;6448;48.916;8.990;2023-02-15T05:04:47;7.40;;;6.85;;
12768;SDS011;6448;48.916;8.990;2023-02-15T05:05:48;7.78;;;7.18;;
12768;SDS011;6448;48.916;8.990;2023-02-15T05:06:49;7.80;;;7.20;;
12768;SDS011;6448;48.916;8.990;2023-02-15T05:07:52;7.82;;;7.22;;
12768;SDS011;6448;48.916;8.990;2023-02-15T05:08:53;7.60;;;7.00;;
12768;SDS011;6448;48.916;8.990;2023-02-15T05:09:55;8.18;;;7.57;;
12768;SDS011;6448;48.916;8.990;2023-02-15T05:10:57;8.15;;;7.55;;
12768;SDS011;6448;48.916;8.990;2023-02-15T05:11:58;7.72;;;7.13;;
12768;SDS011;6448;48.916;8.990;2023-02-15T05:13:00;7.80;;;7.20;;
12768;SDS011;6448;48.916;8.990;2023-02-15T05:14:00;7.93;;;7.32;;
12768;SDS011;6448;48.916;8.990;2023-02-15T05:15:02;8.20;;;7.60;;
12768;SDS011;6448;48.916;8.990;2023-02-15T05:16:03;7.55;;;6.95;;
12768;SDS011;6448;48.916;8.990;2023-02-15T05:17:05;7.75;;;7.15;;
12768;SDS011;6448;48.916;8.990;2023-02-15T05:18:07;7.93;;;7.32;;
12768;SDS011;6448;48.916;8.990;2023-02-15T05:19:08;8.00;;;7.40;;
12768;SDS011;6448;48.916;8.990;2023-02-15T05:20:09;7.93;;;7.30;;
12768;SDS011;6448;48.916;8.990;2023-02-15T05:21:11;7.30;;;6.78;;
12768;SDS011;6448;48.916;8.990;2023-02-15T05:22:13;8.00;;;7.40;;
12768;SDS011;6448;48.916;8.990;2023-02-15T05:23:16;7.97;;;7.38;;
12768;SDS011;6448;48.916;8.990;2023-02-15T05:24:17;8.00;;;7.40;;
12768;SDS011;6448;48.916;8.990;2023-02-15T05:25:36;7.90;;;7.30;;
12768;SDS011;6448;48.916;8.990;2023-02-15T05:26:55;7.63;;;7.03;;
12768;SDS011;6448;48.916;8.990;2023-02-15T05:28:15;7.40;;;6.82;;
12768;SDS011;6448;48.916;8.990;2023-02-15T05:29:23;7.25;;;6.65;;
12768;SDS011;6448;48.916;8.990;2023-02-15T05:30:23;7.03;;;6.53;;
12768;SDS011;6448;48.916;8.990;2023-02-15T05:31:25;7.23;;;6.73;;
12768;SDS011;6448;48.916;8.990;2023-02-15T05:32:26;7.60;;;7.00;;
12768;SDS011;6448;48.916;8.990;2023-02-15T05:33:28;7.75;;;7.15;;
12768;SDS011;6448;48.916;8.990;2023-02-15T05:34:28;7.25;;;6.75;;
12768;SDS011;6448;48.916;8.990;2023-02-15T05:35:31;7.32;;;6.72;;
12768;SDS011;6448;48.916;8.990;2023-02-15T05:36:32;7.32;;;6.82;;
12768;SDS011;6448;48.916;8.990;2023-02-15T05:37:34;7.90;;;7.20;;
12768;SDS011;6448;48.916;8.990;2023-02-15T05:38:36;7.85;;;7.25;;
12768;SDS011;6448;48.916;8.990;2023-02-15T05:39:39;7.85;;;7.25;;
12768;SDS011;6448;48.916;8.990;2023-02-15T05:40:39;7.72;;;7.03;;
12768;SDS011;6448;48.916;8.990;2023-02-15T05:41:41;7.60;;;7.00;;
12768;SDS011;6448;48.916;8.990;2023-02-15T05:42:42;7.63;;;7.03;;
12768;SDS011;6448;48.916;8.990;2023-02-15T05:43:44;8.13;;;7.47;;
12768;SDS011;6448;48.916;8.990;2023-02-15T05:44:44;7.15;;;6.65;;
12768;SDS011;6448;48.916;8.990;2023-02-15T05:45:46;7.25;;;6.75;;
12768;SDS011;6448;48.916;8.990;2023-02-15T05:46:47;7.80;;;7.20;;
12768;SDS011;6448;48.916;8.990;2023-02-15T05:47:49;7.38;;;6.88;;
12768;SDS011;6448;48.916;8.990;2023-02-15T05:48:51;7.75;;;7.10;;
12768;SDS011;6448;48.916;8.990;2023-02-15T05:49:52;7.63;;;7.03;;
12768;SDS011;6448;48.916;8.990;2023-02-15T05:50:57;7.47;;;6.88;;
12768;SDS011;6448;48.916;8.990;2023-02-15T05:51:58;7.80;;;7.20;;
12768;SDS011;6448;48.916;8.990;2023-02-15T05:53:00;8.30;;;7.70;;
12768;SDS011;6448;48.916;8.990;2023-02-15T05:54:02;7.60;;;7.00;;
12768;SDS011;6448;48.916;8.990;2023-02-15T05:55:04;7.73;;;7.10;;
12768;SDS011;6448;48.916;8.990;2023-02-15T05:56:07;8.07;;;7.47;;
12768;SDS011;6448;48.916;8.990;2023-02-15T05:57:10;7.95;;;7.22;;
12768;SDS011;6448;48.916;8.990;2023-02-15T05:58:10;7.90;;;7.30;;
12768;SDS011;6448;48.916;8.990;2023-02-15T05:59:12;8.63;;;7.93;;
12768;SDS011;6448;48.916;8.990;2023-02-15T06:00:13;8.10;;;7.50;;
12768;SDS011;6448;48.916;8.990;2023-02-15T06:01:16;8.18;;;7.47;;
12768;SDS011;6448;48.916;8.990;2023-02-15T06:02:18;8.20;;;7.60;;
12768;SDS011;6448;48.916;8.990;2023-02-15T06:03:20;8.57;;;7.88;;
12768;SDS011;6448;48.916;8.990;2023-02-15T06:04:22;8.10;;;7.40;;
12768;SDS011;6448;48.916;8.990;2023-02-15T06:05:24;7.93;;;7.32;;
12768;SDS011;6448;48.916;8.990;2023-02-15T06:06:24;7.93;;;7.32;;
12768;SDS011;6448;48.916;8.990;2023-02-15T06:07:26;8.50;;;7.80;;
12768;SDS011;6448;48.916;8.990;2023-02-15T06:08:27;8.65;;;7.95;;
12768;SDS011;6448;48.916;8.990;2023-02-15T06:09:30;7.80;;;7.20;;
12768;SDS011;6448;48.916;8.990;2023-02-15T06:10:32;8.30;;;7.70;;
12768;SDS011;6448;48.916;8.990;2023-02-15T06:11:32;8.40;;;7.70;;
12768;SDS011;6448;48.916;8.990;2023-02-15T06:12:34;8.43;;;7.72;;
12768;SDS011;6448;48.916;8.990;2023-02-15T06:13:35;8.68;;;7.95;;
12768;SDS011;6448;48.916;8.990;2023-02-15T06:14:37;8.50;;;7.82;;
12768;SDS011;6448;48.916;8.990;2023-02-15T06:15:38;8.10;;;7.50;;
12768;SDS011;6448;48.916;8.990;2023-02-15T06:16:39;8.07;;;7.47;;
12768;SDS011;6448;48.916;8.990;2023-02-15T06:17:41;7.95;;;7.35;;
12768;SDS011;6448;48.916;8.990;2023-02-15T06:18:42;8.50;;;7.80;;
12768;SDS011;6448;48.916;8.990;2023-02-15T06:19:44;8.00;;;7.40;;
12768;SDS011;6448;48.916;8.990;2023-02-15T06:20:45;8.07;;;7.47;;
12768;SDS011;6448;48.916;8.990;2023-02-15T06:21:47;8.32;;;7.68;;
12768;SDS011;6448;48.916;8.990;2023-02-15T06:22:48;9.40;;;8.60;;
12768;SDS011;6448;48.916;8.990;2023-02-15T06:23:49;9.23;;;8.43;;
12768;SDS011;6448;48.916;8.990;2023-02-15T06:24:52;8.88;;;8.18;;
12768;SDS011;6448;48.916;8.990;2023-02-15T06:25:53;8.18;;;7.57;;
12768;SDS011;6448;48.916;8.990;2023-02-15T06:26:55;8.75;;;8.05;;
12768;SDS011;6448;48.916;8.990;2023-02-15T06:27:55;8.13;;;7.53;;
12768;SDS011;6448;48.916;8.990;2023-02-15T06:28:57;7.90;;;7.30;;
12768;SDS011;6448;48.916;8.990;2023-02-15T06:29:58;8.17;;;7.57;;
12768;SDS011;6448;48.916;8.990;2023-02-15T06:31:00;8.00;;;7.40;;
12768;SDS011;6448;48.916;8.990;2023-02-15T06:32:00;8.23;;;7.60;;
12768;SDS011;6448;48.916;8.990;2023-02-15T06:33:02;8.05;;;7.45;;
12768;SDS011;6448;48.916;8.990;2023-02-15T06:34:03;7.97;;;7.37;;